ADDS METAR Data INFO
IDs: Format: Raw Decoded Include TAF

Data at: 0845 UTC 27 Jun 2017

KOSA 270835Z AUTO 00000KT 10SM CLR 21/20 A3005 RMK AO1 T02050202
KOSA 270815Z AUTO 00000KT 10SM CLR 21/21 A3005 RMK AO1 T02050205
KOSA 270755Z AUTO 00000KT 10SM CLR 20/20 A3006 RMK AO1 T02040203
KOSA 270735Z AUTO 00000KT 10SM CLR 21/20 A3006 RMK AO1 T02100196
KOSA 270715Z AUTO 00000KT 10SM CLR 21/21 A3006 RMK AO1 T02050205
KOSA 270655Z AUTO 00000KT 10SM CLR 21/20 A3007 RMK AO1 T02060195
KOSA 270635Z AUTO 00000KT 10SM CLR 21/19 A3007 RMK AO1 T02110191
KOSA 270615Z AUTO 00000KT 10SM CLR 21/20 A3007 RMK AO1 T02120195
KOSA 270555Z AUTO 00000KT 10SM CLR 22/19 A3007 RMK AO1 T02160192 10292 20216 403040180
KOSA 270535Z AUTO 00000KT 10SM CLR 22/19 A3007 RMK AO1 T02170190
KOSA 270515Z AUTO 00000KT 10SM CLR 22/19 A3007 RMK AO1 T02220185
KOSA 270455Z AUTO 00000KT 10SM CLR 23/18 A3007 RMK AO1 T02300181
KOSA 270435Z AUTO 00000KT 10SM CLR 23/19 A3007 RMK AO1 T02320187
KOSA 270415Z AUTO 00000KT 10SM CLR 24/19 A3007 RMK AO1 T02350186
KOSA 270355Z AUTO 00000KT 10SM CLR 24/18 A3007 RMK AO1 T02390181
KOSA 270335Z AUTO 00000KT 10SM CLR 24/18 A3006 RMK AO1 T02400180
KOSA 270315Z AUTO 00000KT 10SM CLR 24/18 A3006 RMK AO1 T02430180
KOSA 270255Z AUTO 00000KT 10SM CLR 25/18 A3006 RMK AO1 T02450183
KOSA 270235Z AUTO 00000KT 10SM CLR 25/18 A3005 RMK AO1 T02470182
KOSA 270215Z AUTO 08003KT 10SM CLR 25/18 A3005 RMK AO1 T02500184
KOSA 270155Z AUTO 00000KT 10SM CLR 25/19 A3005 RMK AO1 T02530190
KOSA 270135Z AUTO 11003KT 10SM CLR 26/19 A3005 RMK AO1 T02600187
KOSA 270115Z AUTO 00000KT 10SM CLR 26/19 A3005 RMK AO1 T02610192
KOSA 270055Z AUTO 00000KT 10SM CLR 27/18 A3005 RMK AO1 T02710184
KOSA 270035Z AUTO 05004KT 10SM SCT050 28/18 A3004 RMK AO1 T02810180
KOSA 270015Z AUTO 06003KT 10SM SCT050 29/18 A3004 RMK AO1 T02900180
KOSA 262355Z AUTO 00000KT 10SM CLR 29/18 A3004 RMK AO1 T02870177 10304 20282
KOSA 262335Z AUTO 00000KT 10SM SCT050 29/17 A3004 RMK AO1 T02900174
KOSA 262315Z AUTO 10003KT 10SM CLR 30/16 A3004 RMK AO1 T03030164
KOSA 262255Z AUTO 07003KT 10SM CLR 30/17 A3004 RMK AO1 T03020165
KOSA 262235Z AUTO 00000KT 10SM SCT049 29/17 A3005 RMK AO1 T02930170
KOSA 262215Z AUTO 00000KT 10SM SCT049 30/17 A3005 RMK AO1 T02990170
KOSA 262155Z AUTO 00000KT 10SM CLR 30/17 A3006 RMK AO1 T03020169
KOSA 262135Z AUTO 15003KT 10SM CLR 30/17 A3007 RMK AO1 T02970174
KOSA 262115Z AUTO 19003KT 10SM CLR 30/17 A3007 RMK AO1 T02970167
KOSA 262055Z AUTO 13003KT 10SM CLR 30/17 A3008 RMK AO1 T02990166
KOSA 262035Z AUTO 00000KT 10SM CLR 30/16 A3009 RMK AO1 T02980162
KOSA 262015Z AUTO 16006KT 10SM CLR 30/17 A3010 RMK AO1 T02990166
KOSA 261955Z AUTO 16005KT 10SM CLR 30/16 A3011 RMK AO1 T02960155
KOSA 261935Z AUTO 15003KT 10SM CLR 29/14 A3011 RMK AO1 T02910144
KOSA 261915Z AUTO 08004KT 10SM CLR 29/15 A3012 RMK AO1 T02930150
KOSA 261855Z AUTO 07005KT 10SM CLR 29/15 A3013 RMK AO1 T02900150
KOSA 261835Z AUTO 10006KT 10SM CLR 29/16 A3014 RMK AO1 T02850157
KOSA 261815Z AUTO 11005KT 10SM CLR 29/16 A3015 RMK AO1 T02850158
KOSA 261755Z AUTO 09005KT 10SM CLR 28/16 A3016 RMK AO1 T02820162 10285 20193
KOSA 261735Z AUTO 15008KT 10SM CLR 28/16 A3017 RMK AO1 T02810160
KOSA 261715Z AUTO 00000KT 10SM CLR 27/16 A3018 RMK AO1 T02710157
KOSA 261655Z AUTO 12007KT 10SM CLR 27/16 A3019 RMK AO1 T02670164
KOSA 261635Z AUTO 12006KT 10SM CLR 26/16 A3019 RMK AO1 T02640164
KOSA 261615Z AUTO 14009KT 10SM CLR 26/17 A3020 RMK AO1 T02590166
KOSA 261555Z AUTO 10005KT 10SM SCT060 25/16 A3020 RMK AO1 T02530164
KOSA 261535Z AUTO 12005KT 10SM CLR 24/17 A3020 RMK AO1 T02420165
KOSA 261515Z AUTO 13003KT 10SM SCT060 23/17 A3020 RMK AO1 T02320168
KOSA 261455Z AUTO 13003KT 10SM SCT060 23/17 A3021 RMK AO1 T02250168
KOSA 261435Z AUTO 11003KT 10SM SCT060 22/17 A3021 RMK AO1 T02200165
KOSA 261415Z AUTO 00000KT 10SM SCT048 SCT060 22/17 A3022 RMK AO1 T02200170
KOSA 261355Z AUTO 00000KT 10SM BKN048 22/17 A3021 RMK AO1 T02180166
KOSA 261335Z AUTO 00000KT 10SM BKN048 22/17 A3020 RMK AO1 T02160170
KOSA 261315Z AUTO 08003KT 10SM BKN048 22/18 A3020 RMK AO1 T02150180
KOSA 261255Z AUTO 09004KT 10SM BKN048 21/19 A3019 RMK AO1 T02110185
KOSA 261235Z AUTO 00000KT 10SM BKN048 21/20 A3019 RMK AO1 T02050197
KOSA 261215Z AUTO 00000KT 10SM BKN046 20/20 A3018 RMK AO1 T01970197
KOSA 261155Z AUTO 00000KT 10SM OVC046 19/19 A3018 RMK AO1 T01930193 10200 20180
KOSA 261135Z AUTO 04003KT 10SM OVC046 19/19 A3018 RMK AO1 T01910191
KOSA 261115Z AUTO 02005KT 10SM OVC046 19/19 A3018 RMK AO1 T01870187
KOSA 261055Z AUTO 03003KT 10SM OVC046 19/19 A3018 RMK AO1 T01860186
KOSA 261035Z AUTO 02004KT 10SM BKN046 19/19 A3018 RMK AO1 T01850185
KOSA 261015Z AUTO 01003KT 10SM CLR 18/18 A3017 RMK AO1 T01820182
KOSA 260955Z AUTO 00000KT 10SM SCT055 18/18 A3017 RMK AO1 T01840184
KOSA 260935Z AUTO 02004KT 10SM CLR 18/18 A3018 RMK AO1 T01810181
KOSA 260915Z AUTO 00000KT 10SM CLR 18/18 A3018 RMK AO1 T01800180
KOSA 260855Z AUTO 00000KT 10SM CLR 18/18 A3018 RMK AO1 T01820182
KOSA 260835Z AUTO 00000KT 10SM CLR 18/18 A3018 RMK AO1 T01840184
KOSA 260815Z AUTO 00000KT 10SM CLR 19/18 A3018 RMK AO1 T01850177
KOSA 260755Z AUTO 00000KT 10SM CLR 19/18 A3019 RMK AO1 T01870176
KOSA 260735Z AUTO 00000KT 10SM CLR 19/18 A3018 RMK AO1 T01940175
KOSA 260715Z AUTO 02003KT 10SM CLR 19/17 A3019 RMK AO1 T01930174
KOSA 260655Z AUTO 00000KT 10SM CLR 20/17 A3019 RMK AO1 T01950172
KOSA 260635Z AUTO 12003KT 10SM CLR 19/18 A3018 RMK AO1 T01870175
KOSA 260615Z AUTO 00000KT 10SM CLR 20/17 A3020 RMK AO1 T01990167
KOSA 260555Z AUTO 00000KT 10SM CLR 20/18 A3020 RMK AO1 T01950175 10283 20191 402980191
KOSA 260535Z AUTO 00000KT 10SM CLR 19/18 A3019 RMK AO1 T01920184
KOSA 260515Z AUTO 00000KT 10SM CLR 20/18 A3020 RMK AO1 T01960176
KOSA 260455Z AUTO 00000KT 10SM CLR 21/16 A3020 RMK AO1 T02070161
KOSA 260435Z AUTO 00000KT 10SM CLR 22/15 A3020 RMK AO1 T02150153
KOSA 260415Z AUTO 00000KT 10SM CLR 21/17 A3020 RMK AO1 T02060167
KOSA 260355Z AUTO 00000KT 10SM CLR 22/15 A3019 RMK AO1 T02230147
KOSA 260335Z AUTO 00000KT 10SM CLR 22/15 A3019 RMK AO1 T02220150
KOSA 260315Z AUTO 00000KT 10SM CLR 22/16 A3019 RMK AO1 T02200155
KOSA 260255Z AUTO 13004KT 10SM CLR 22/16 A3017 RMK AO1 T02200158
KOSA 260235Z AUTO 12004KT 10SM CLR 22/16 A3017 RMK AO1 T02220164
KOSA 260215Z AUTO 12003KT 10SM CLR 23/16 A3016 RMK AO1 T02320157
KOSA 260155Z AUTO 11004KT 10SM CLR 24/16 A3015 RMK AO1 T02350163
KOSA 260135Z AUTO 11003KT 10SM CLR 25/16 A3015 RMK AO1 T02470160
KOSA 260115Z AUTO 00000KT 10SM CLR 25/17 A3014 RMK AO1 T02520171
KOSA 260055Z AUTO 13003KT 10SM CLR 26/17 A3014 RMK AO1 T02600171
KOSA 260035Z AUTO 12004KT 10SM CLR 27/16 A3014 RMK AO1 T02720163
KOSA 260015Z AUTO 13004KT 10SM CLR 28/16 A3015 RMK AO1 T02790161
KOSA 252355Z AUTO 11005KT 10SM CLR 28/16 A3015 RMK AO1 T02820155 10298 20272
KOSA 252335Z AUTO 10008KT 10SM CLR 29/15 A3015 RMK AO1 T02860147
KOSA 252315Z AUTO 11005KT 10SM CLR 29/15 A3015 RMK AO1 T02900146
KOSA 252255Z AUTO 10006KT 10SM CLR 29/14 A3015 RMK AO1 T02920142
KOSA 252235Z AUTO 11006KT 10SM CLR 30/14 A3017 RMK AO1 T02950137
KOSA 252215Z AUTO 09008KT 10SM CLR 30/12 A3018 RMK AO1 T02950120
KOSA 252155Z AUTO 08006KT 10SM CLR 30/12 A3018 RMK AO1 T02970118
KOSA 252135Z AUTO 05007KT 10SM CLR 29/15 A3018 RMK AO1 T02930147
KOSA 252115Z AUTO 12005KT 10SM CLR 30/16 A3018 RMK AO1 T02960156
KOSA 252055Z AUTO 08006KT 10SM CLR 29/16 A3019 RMK AO1 T02920160


Page loaded:  08:45 UTC  |   01:45 AM Pacific  |   02:45 AM Mountain  |   03:45 AM Central  |   04:45 AM Eastern

 

ADVISORIES

FORECASTS

FORECASTS

OBSERVATIONS

USER TOOLS

ABOUT US